Tiff City, MO (64868)

3:43 PM CST on February 20, 2017 (GMT -0600)
Grove Municipal | | Change Station

Elev 830 ft 36.60 °N, 94.74 °W | Updated 8 minutes ago

Overcast
Overcast
64 °F
Feels Like 64 °F
N
6
Wind Variable Wind from SSW

Today
High -- | Low -- °F
--% Chance of Precip.
Yesterday
High -- | Low -- °F
Precip. -- in
Pressure 29.93 in
Visibility 10.0 miles
Clouds Scattered Clouds 2600 ft
Mostly Cloudy 3300 ft
Overcast 4600 ft
Dew Point 57 °F
Humidity 77%
Rainfall 0.34 in
Snow Depth Not available.
7:00 AM 6:04 PM
Waning Crescent, 31% visible
METAR KGMJ 202135Z AUTO 21005KT 10SM SCT026 BKN033 OVC046 18/14 A2993 RMK AO2
Pressure 29.93 in
Visibility 10.0 miles
Clouds Scattered Clouds 2600 ft
Mostly Cloudy 3300 ft
Overcast 4600 ft
Dew Point 57 °F
Humidity 77%
Rainfall 0.34 in
Snow Depth Not available.
7:00 AM 6:04 PM
Waning Crescent, 31% visible
METAR KGMJ 202135Z AUTO 21005KT 10SM SCT026 BKN033 OVC046 18/14 A2993 RMK AO2

Get Your Daily Forecast Email!

Thanks for signing up!

Be on the lookout for a verification email in your inbox.

You'll start receiving the daily forecast at 8 AM.

×

10-Day Weather Forecast

Almanac

Astronomy

Feb. 20, 2017 Rise Set
Actual Time
Civil Twilight
Nautical Twilight
Astronomical Twilight
Moon
Length of Visible Light
Length of Day
Tomorrow will be .
, % of the Moon is Illuminated

Today's Extremes

State Highs State Lows

Community

WunderPhotos

Upload Photos

1,962,540 photos uploaded!

WunderBlog® & News

Nearby

Air Quality

  Air Quality AQ Index Pollutant
Not available.

Snow Depth

Station Depth Elevation

Earthquake Activity

City Distance Mag. Time & Date
Minimum magnitude displayed is 2.5.

Coastal Water Temperatures

Place Temperature

Stations

Nearby Weather Stations

Station Location Temp. Windchill Dew Point Humidity Wind Precip. Elev Updated Type
                   

Watches & Warnings

There are currently no watches in effect.